Seaside, California
Current Conditions -  °F | °C
As of 9:36 PM on Saturday 25 Oct 2014 (Local Time) from KMRY Reporting Station
Overcast Overcast  
Wind Chill: 59°   Ceiling: 2900
Heat Index: 59°   Visibility: 10mi
Dew Point: 54°   Wind: 5mph
Humidity: 82%   Direction: 90°E
Pressure: 30.14"   Gusts: NA
Location:  36.6°N, 121.85°W
Report Text: KMRY 260436Z AUTO 09004KT 10SM FEW020 OVC029 15/12 A3014 RMK AO2
Loading
Personal Weather Stations






























Interactive Weather Map
Tropical Storm Tracking
New forecast layout! Learn more

10-Day Weather Forecast

Advertisements
Track Severe Weather on mobile